sensor_id;sensor_type;location;lat;lon;timestamp;temperature;humidity
18408;DHT22;9330;52.210;21.174;2023-01-15T00:00:29;4.30;99.90
18408;DHT22;9330;52.210;21.174;2023-01-15T00:02:56;4.40;99.90
18408;DHT22;9330;52.210;21.174;2023-01-15T00:05:22;4.40;99.90
18408;DHT22;9330;52.210;21.174;2023-01-15T00:07:51;4.40;99.90
18408;DHT22;9330;52.210;21.174;2023-01-15T00:10:18;4.50;99.90
18408;DHT22;9330;52.210;21.174;2023-01-15T00:12:45;4.50;99.90
18408;DHT22;9330;52.210;21.174;2023-01-15T00:15:12;4.40;99.90
18408;DHT22;9330;52.210;21.174;2023-01-15T00:17:38;4.40;99.90
18408;DHT22;9330;52.210;21.174;2023-01-15T00:20:06;4.40;99.90
18408;DHT22;9330;52.210;21.174;2023-01-15T00:22:33;4.40;99.90
18408;DHT22;9330;52.210;21.174;2023-01-15T00:25:02;4.60;99.90
18408;DHT22;9330;52.210;21.174;2023-01-15T00:27:46;4.40;99.90
18408;DHT22;9330;52.210;21.174;2023-01-15T00:30:14;4.40;99.90
18408;DHT22;9330;52.210;21.174;2023-01-15T00:32:42;4.40;99.90
18408;DHT22;9330;52.210;21.174;2023-01-15T00:35:12;4.40;99.90
18408;DHT22;9330;52.210;21.174;2023-01-15T00:37:39;4.40;99.90
18408;DHT22;9330;52.210;21.174;2023-01-15T00:40:09;4.50;99.90
18408;DHT22;9330;52.210;21.174;2023-01-15T00:42:36;4.40;99.90
18408;DHT22;9330;52.210;21.174;2023-01-15T00:45:03;4.50;99.90
18408;DHT22;9330;52.210;21.174;2023-01-15T00:47:34;4.40;99.90
18408;DHT22;9330;52.210;21.174;2023-01-15T00:50:02;4.40;99.90
18408;DHT22;9330;52.210;21.174;2023-01-15T00:52:30;4.40;99.90
18408;DHT22;9330;52.210;21.174;2023-01-15T00:54:57;4.40;99.90
18408;DHT22;9330;52.210;21.174;2023-01-15T00:57:28;4.40;99.90
18408;DHT22;9330;52.210;21.174;2023-01-15T00:59:55;4.40;99.90
18408;DHT22;9330;52.210;21.174;2023-01-15T01:02:21;4.30;99.90
18408;DHT22;9330;52.210;21.174;2023-01-15T01:04:48;4.40;99.90
18408;DHT22;9330;52.210;21.174;2023-01-15T01:07:15;4.40;99.90
18408;DHT22;9330;52.210;21.174;2023-01-15T01:09:43;4.40;99.90
18408;DHT22;9330;52.210;21.174;2023-01-15T01:12:10;4.30;99.90
18408;DHT22;9330;52.210;21.174;2023-01-15T01:14:38;4.40;99.90
18408;DHT22;9330;52.210;21.174;2023-01-15T01:17:05;4.50;99.90
18408;DHT22;9330;52.210;21.174;2023-01-15T01:19:32;4.40;99.90
18408;DHT22;9330;52.210;21.174;2023-01-15T01:21:58;4.50;99.90
18408;DHT22;9330;52.210;21.174;2023-01-15T01:24:25;4.30;99.90
18408;DHT22;9330;52.210;21.174;2023-01-15T01:26:52;4.30;99.90
18408;DHT22;9330;52.210;21.174;2023-01-15T01:29:21;4.30;99.90
18408;DHT22;9330;52.210;21.174;2023-01-15T01:31:49;4.30;99.90
18408;DHT22;9330;52.210;21.174;2023-01-15T01:34:17;4.20;99.90
18408;DHT22;9330;52.210;21.174;2023-01-15T01:36:44;4.30;99.90
18408;DHT22;9330;52.210;21.174;2023-01-15T01:39:15;4.30;99.90
18408;DHT22;9330;52.210;21.174;2023-01-15T01:41:43;4.20;99.90
18408;DHT22;9330;52.210;21.174;2023-01-15T01:47:14;4.30;99.90
18408;DHT22;9330;52.210;21.174;2023-01-15T01:49:44;4.20;99.90
18408;DHT22;9330;52.210;21.174;2023-01-15T01:52:17;4.30;99.90
18408;DHT22;9330;52.210;21.174;2023-01-15T01:54:46;4.20;99.90
18408;DHT22;9330;52.210;21.174;2023-01-15T01:57:15;4.20;99.90
18408;DHT22;9330;52.210;21.174;2023-01-15T01:59:43;4.30;99.90
18408;DHT22;9330;52.210;21.174;2023-01-15T02:02:12;4.20;99.90
18408;DHT22;9330;52.210;21.174;2023-01-15T02:04:39;4.20;99.90
18408;DHT22;9330;52.210;21.174;2023-01-15T02:07:06;4.10;99.90
18408;DHT22;9330;52.210;21.174;2023-01-15T02:09:34;4.20;99.90
18408;DHT22;9330;52.210;21.174;2023-01-15T02:12:08;4.20;99.90
18408;DHT22;9330;52.210;21.174;2023-01-15T02:14:41;4.10;99.90
18408;DHT22;9330;52.210;21.174;2023-01-15T02:17:14;4.00;99.90
18408;DHT22;9330;52.210;21.174;2023-01-15T02:19:50;4.00;99.90
18408;DHT22;9330;52.210;21.174;2023-01-15T02:22:27;4.00;99.90
18408;DHT22;9330;52.210;21.174;2023-01-15T02:25:03;4.00;99.90
18408;DHT22;9330;52.210;21.174;2023-01-15T02:27:34;4.00;99.90
18408;DHT22;9330;52.210;21.174;2023-01-15T02:30:06;3.90;99.90
18408;DHT22;9330;52.210;21.174;2023-01-15T02:32:38;3.90;99.90
18408;DHT22;9330;52.210;21.174;2023-01-15T02:35:11;3.80;99.90
18408;DHT22;9330;52.210;21.174;2023-01-15T02:37:42;3.90;99.90
18408;DHT22;9330;52.210;21.174;2023-01-15T02:40:11;4.00;99.90
18408;DHT22;9330;52.210;21.174;2023-01-15T02:42:42;3.80;99.90
18408;DHT22;9330;52.210;21.174;2023-01-15T02:45:11;3.90;99.90
18408;DHT22;9330;52.210;21.174;2023-01-15T02:47:42;3.90;99.90
18408;DHT22;9330;52.210;21.174;2023-01-15T02:50:13;3.80;99.90
18408;DHT22;9330;52.210;21.174;2023-01-15T02:52:44;3.90;99.90
18408;DHT22;9330;52.210;21.174;2023-01-15T02:55:15;3.90;99.90
18408;DHT22;9330;52.210;21.174;2023-01-15T02:57:46;3.80;99.90
18408;DHT22;9330;52.210;21.174;2023-01-15T03:00:15;3.80;99.90
18408;DHT22;9330;52.210;21.174;2023-01-15T03:02:45;3.80;99.90
18408;DHT22;9330;52.210;21.174;2023-01-15T03:05:18;3.80;99.90
18408;DHT22;9330;52.210;21.174;2023-01-15T03:07:48;3.80;99.90
18408;DHT22;9330;52.210;21.174;2023-01-15T03:10:17;3.80;99.90
18408;DHT22;9330;52.210;21.174;2023-01-15T03:12:49;4.00;99.90
18408;DHT22;9330;52.210;21.174;2023-01-15T03:15:39;3.80;99.90
18408;DHT22;9330;52.210;21.174;2023-01-15T03:18:28;3.80;99.90
18408;DHT22;9330;52.210;21.174;2023-01-15T03:21:00;3.70;99.90
18408;DHT22;9330;52.210;21.174;2023-01-15T03:23:29;3.80;99.90
18408;DHT22;9330;52.210;21.174;2023-01-15T03:25:56;3.80;99.90
18408;DHT22;9330;52.210;21.174;2023-01-15T03:28:30;3.80;99.90
18408;DHT22;9330;52.210;21.174;2023-01-15T03:30:59;3.90;99.90
18408;DHT22;9330;52.210;21.174;2023-01-15T03:33:26;3.80;99.90
18408;DHT22;9330;52.210;21.174;2023-01-15T03:35:56;4.00;99.90
18408;DHT22;9330;52.210;21.174;2023-01-15T03:38:28;3.90;99.90
18408;DHT22;9330;52.210;21.174;2023-01-15T03:41:01;4.00;99.90
18408;DHT22;9330;52.210;21.174;2023-01-15T03:43:36;4.00;99.90
18408;DHT22;9330;52.210;21.174;2023-01-15T03:46:14;3.90;99.90
18408;DHT22;9330;52.210;21.174;2023-01-15T03:48:50;4.00;99.90
18408;DHT22;9330;52.210;21.174;2023-01-15T03:51:23;4.10;99.90
18408;DHT22;9330;52.210;21.174;2023-01-15T03:53:53;4.10;99.90
18408;DHT22;9330;52.210;21.174;2023-01-15T03:56:26;4.10;99.90
18408;DHT22;9330;52.210;21.174;2023-01-15T03:59:00;4.10;99.90
18408;DHT22;9330;52.210;21.174;2023-01-15T04:01:31;4.10;99.90
18408;DHT22;9330;52.210;21.174;2023-01-15T04:04:01;4.10;99.90
18408;DHT22;9330;52.210;21.174;2023-01-15T04:06:32;4.10;99.90
18408;DHT22;9330;52.210;21.174;2023-01-15T04:09:01;4.00;99.90
18408;DHT22;9330;52.210;21.174;2023-01-15T04:11:29;4.10;99.90
18408;DHT22;9330;52.210;21.174;2023-01-15T04:14:01;4.10;99.90
18408;DHT22;9330;52.210;21.174;2023-01-15T04:16:29;4.00;99.90
18408;DHT22;9330;52.210;21.174;2023-01-15T04:18:57;4.00;99.90
18408;DHT22;9330;52.210;21.174;2023-01-15T04:21:24;4.10;99.90
18408;DHT22;9330;52.210;21.174;2023-01-15T04:23:50;4.10;99.90
18408;DHT22;9330;52.210;21.174;2023-01-15T04:26:17;4.10;99.90
18408;DHT22;9330;52.210;21.174;2023-01-15T04:28:44;4.10;99.90
18408;DHT22;9330;52.210;21.174;2023-01-15T04:31:13;4.10;99.90
18408;DHT22;9330;52.210;21.174;2023-01-15T04:33:40;4.20;99.90
18408;DHT22;9330;52.210;21.174;2023-01-15T04:36:07;4.20;99.90
18408;DHT22;9330;52.210;21.174;2023-01-15T04:38:35;4.10;99.90
18408;DHT22;9330;52.210;21.174;2023-01-15T04:41:02;4.20;99.90
18408;DHT22;9330;52.210;21.174;2023-01-15T04:43:47;4.20;99.90
18408;DHT22;9330;52.210;21.174;2023-01-15T04:46:34;4.20;99.90
18408;DHT22;9330;52.210;21.174;2023-01-15T04:49:02;4.20;99.90
18408;DHT22;9330;52.210;21.174;2023-01-15T04:51:29;4.10;99.90
18408;DHT22;9330;52.210;21.174;2023-01-15T04:53:56;4.20;99.90
18408;DHT22;9330;52.210;21.174;2023-01-15T04:56:23;4.20;99.90
18408;DHT22;9330;52.210;21.174;2023-01-15T04:58:49;4.20;99.90
18408;DHT22;9330;52.210;21.174;2023-01-15T05:01:16;4.20;99.90
18408;DHT22;9330;52.210;21.174;2023-01-15T05:03:45;4.20;99.90
18408;DHT22;9330;52.210;21.174;2023-01-15T05:06:12;4.20;99.90
18408;DHT22;9330;52.210;21.174;2023-01-15T05:08:39;4.20;99.90
18408;DHT22;9330;52.210;21.174;2023-01-15T05:11:06;4.30;99.90
18408;DHT22;9330;52.210;21.174;2023-01-15T05:13:33;4.20;99.90
18408;DHT22;9330;52.210;21.174;2023-01-15T05:16:09;4.10;99.90
18408;DHT22;9330;52.210;21.174;2023-01-15T05:18:36;4.20;99.90
18408;DHT22;9330;52.210;21.174;2023-01-15T05:21:08;4.20;99.90
18408;DHT22;9330;52.210;21.174;2023-01-15T05:23:38;4.20;99.90
18408;DHT22;9330;52.210;21.174;2023-01-15T05:26:05;4.30;99.90
18408;DHT22;9330;52.210;21.174;2023-01-15T05:28:32;4.30;99.90
18408;DHT22;9330;52.210;21.174;2023-01-15T05:31:05;4.30;99.90
18408;DHT22;9330;52.210;21.174;2023-01-15T05:33:32;4.30;99.90
18408;DHT22;9330;52.210;21.174;2023-01-15T05:36:01;4.30;99.90
18408;DHT22;9330;52.210;21.174;2023-01-15T05:38:29;4.30;99.90
18408;DHT22;9330;52.210;21.174;2023-01-15T05:40:56;4.30;99.90
18408;DHT22;9330;52.210;21.174;2023-01-15T05:43:23;4.20;99.90
18408;DHT22;9330;52.210;21.174;2023-01-15T05:45:50;4.20;99.90
18408;DHT22;9330;52.210;21.174;2023-01-15T05:48:17;4.30;99.90
18408;DHT22;9330;52.210;21.174;2023-01-15T05:50:43;4.30;99.90
18408;DHT22;9330;52.210;21.174;2023-01-15T05:53:10;4.40;99.90
18408;DHT22;9330;52.210;21.174;2023-01-15T05:55:38;4.40;99.90
18408;DHT22;9330;52.210;21.174;2023-01-15T05:58:05;4.40;99.90
18408;DHT22;9330;52.210;21.174;2023-01-15T06:00:32;4.50;99.90
18408;DHT22;9330;52.210;21.174;2023-01-15T06:02:59;4.30;99.90
18408;DHT22;9330;52.210;21.174;2023-01-15T06:05:26;4.40;99.90
18408;DHT22;9330;52.210;21.174;2023-01-15T06:07:52;4.50;99.90
18408;DHT22;9330;52.210;21.174;2023-01-15T06:10:19;4.50;99.90
18408;DHT22;9330;52.210;21.174;2023-01-15T06:12:47;4.50;99.90
18408;DHT22;9330;52.210;21.174;2023-01-15T06:15:14;4.50;99.90
18408;DHT22;9330;52.210;21.174;2023-01-15T06:17:41;4.50;99.90
18408;DHT22;9330;52.210;21.174;2023-01-15T06:20:09;4.60;99.90
18408;DHT22;9330;52.210;21.174;2023-01-15T06:22:36;4.50;99.90
18408;DHT22;9330;52.210;21.174;2023-01-15T06:25:04;4.80;99.90
18408;DHT22;9330;52.210;21.174;2023-01-15T06:27:32;4.60;99.90
18408;DHT22;9330;52.210;21.174;2023-01-15T06:30:00;4.60;99.90
18408;DHT22;9330;52.210;21.174;2023-01-15T06:32:27;4.60;99.90
18408;DHT22;9330;52.210;21.174;2023-01-15T06:34:54;4.60;99.90
18408;DHT22;9330;52.210;21.174;2023-01-15T06:37:21;4.60;99.90
18408;DHT22;9330;52.210;21.174;2023-01-15T06:39:48;4.70;99.90
18408;DHT22;9330;52.210;21.174;2023-01-15T06:42:14;4.70;99.90
18408;DHT22;9330;52.210;21.174;2023-01-15T06:45:00;4.70;99.90
18408;DHT22;9330;52.210;21.174;2023-01-15T06:47:46;4.70;99.90
18408;DHT22;9330;52.210;21.174;2023-01-15T06:50:13;4.80;99.90
18408;DHT22;9330;52.210;21.174;2023-01-15T06:52:40;4.80;99.90
18408;DHT22;9330;52.210;21.174;2023-01-15T06:55:08;4.70;99.90
18408;DHT22;9330;52.210;21.174;2023-01-15T06:57:37;4.80;99.90
18408;DHT22;9330;52.210;21.174;2023-01-15T07:00:07;4.80;99.90
18408;DHT22;9330;52.210;21.174;2023-01-15T07:02:34;4.80;99.90
18408;DHT22;9330;52.210;21.174;2023-01-15T07:05:01;4.80;99.90
18408;DHT22;9330;52.210;21.174;2023-01-15T07:07:29;4.70;99.90
18408;DHT22;9330;52.210;21.174;2023-01-15T07:09:56;4.80;99.90
18408;DHT22;9330;52.210;21.174;2023-01-15T07:12:23;4.70;99.90
18408;DHT22;9330;52.210;21.174;2023-01-15T07:14:50;4.80;99.90
18408;DHT22;9330;52.210;21.174;2023-01-15T07:17:20;4.70;99.90
18408;DHT22;9330;52.210;21.174;2023-01-15T07:19:47;4.80;99.90
18408;DHT22;9330;52.210;21.174;2023-01-15T07:22:15;4.70;99.90
18408;DHT22;9330;52.210;21.174;2023-01-15T07:24:43;4.60;99.90
18408;DHT22;9330;52.210;21.174;2023-01-15T07:27:09;4.70;99.90
18408;DHT22;9330;52.210;21.174;2023-01-15T07:29:37;4.60;99.90
18408;DHT22;9330;52.210;21.174;2023-01-15T07:32:05;4.60;99.90
18408;DHT22;9330;52.210;21.174;2023-01-15T07:34:34;4.60;99.90
18408;DHT22;9330;52.210;21.174;2023-01-15T07:37:01;4.50;99.90
18408;DHT22;9330;52.210;21.174;2023-01-15T07:39:28;4.50;99.90
18408;DHT22;9330;52.210;21.174;2023-01-15T07:41:56;4.60;99.90
18408;DHT22;9330;52.210;21.174;2023-01-15T07:44:40;4.40;99.90
18408;DHT22;9330;52.210;21.174;2023-01-15T07:47:25;4.40;99.90
18408;DHT22;9330;52.210;21.174;2023-01-15T07:50:13;4.40;99.90
18408;DHT22;9330;52.210;21.174;2023-01-15T07:52:41;4.40;99.90
18408;DHT22;9330;52.210;21.174;2023-01-15T07:55:08;4.40;99.90
18408;DHT22;9330;52.210;21.174;2023-01-15T07:57:37;4.40;99.90
18408;DHT22;9330;52.210;21.174;2023-01-15T08:00:06;4.40;99.90
18408;DHT22;9330;52.210;21.174;2023-01-15T08:02:34;4.30;99.90
18408;DHT22;9330;52.210;21.174;2023-01-15T08:05:01;4.40;99.90
18408;DHT22;9330;52.210;21.174;2023-01-15T08:07:29;4.40;99.90
18408;DHT22;9330;52.210;21.174;2023-01-15T08:09:56;4.20;99.90
18408;DHT22;9330;52.210;21.174;2023-01-15T08:12:23;4.40;99.90
18408;DHT22;9330;52.210;21.174;2023-01-15T08:15:09;4.40;99.90
18408;DHT22;9330;52.210;21.174;2023-01-15T08:17:39;4.40;99.90
18408;DHT22;9330;52.210;21.174;2023-01-15T08:20:09;4.40;99.90
18408;DHT22;9330;52.210;21.174;2023-01-15T08:22:38;4.50;99.90
18408;DHT22;9330;52.210;21.174;2023-01-15T08:25:07;4.50;99.90
18408;DHT22;9330;52.210;21.174;2023-01-15T08:27:34;4.50;99.90
18408;DHT22;9330;52.210;21.174;2023-01-15T08:30:01;4.50;99.90
18408;DHT22;9330;52.210;21.174;2023-01-15T08:32:28;4.50;99.90
18408;DHT22;9330;52.210;21.174;2023-01-15T08:34:55;4.60;99.90
18408;DHT22;9330;52.210;21.174;2023-01-15T08:37:22;4.70;99.90
18408;DHT22;9330;52.210;21.174;2023-01-15T08:39:50;4.80;99.90
18408;DHT22;9330;52.210;21.174;2023-01-15T08:42:18;4.70;99.90
18408;DHT22;9330;52.210;21.174;2023-01-15T08:44:45;4.70;99.90
18408;DHT22;9330;52.210;21.174;2023-01-15T08:47:12;4.80;99.90
18408;DHT22;9330;52.210;21.174;2023-01-15T08:49:39;4.70;99.90
18408;DHT22;9330;52.210;21.174;2023-01-15T08:52:06;4.80;99.90
18408;DHT22;9330;52.210;21.174;2023-01-15T08:54:34;4.90;99.90
18408;DHT22;9330;52.210;21.174;2023-01-15T08:57:02;4.80;99.90
18408;DHT22;9330;52.210;21.174;2023-01-15T08:59:29;4.90;99.90
18408;DHT22;9330;52.210;21.174;2023-01-15T09:01:56;5.00;99.90
18408;DHT22;9330;52.210;21.174;2023-01-15T09:04:23;5.00;99.90
18408;DHT22;9330;52.210;21.174;2023-01-15T09:06:51;5.00;99.90
18408;DHT22;9330;52.210;21.174;2023-01-15T09:09:17;5.00;99.90
18408;DHT22;9330;52.210;21.174;2023-01-15T09:11:45;5.10;99.90
18408;DHT22;9330;52.210;21.174;2023-01-15T09:14:14;5.10;99.90
18408;DHT22;9330;52.210;21.174;2023-01-15T09:16:41;5.10;99.90
18408;DHT22;9330;52.210;21.174;2023-01-15T09:19:09;5.20;99.90
18408;DHT22;9330;52.210;21.174;2023-01-15T09:21:36;5.20;99.90
18408;DHT22;9330;52.210;21.174;2023-01-15T09:24:04;5.20;99.90
18408;DHT22;9330;52.210;21.174;2023-01-15T09:26:32;5.20;99.90
18408;DHT22;9330;52.210;21.174;2023-01-15T09:29:00;5.10;99.90
18408;DHT22;9330;52.210;21.174;2023-01-15T09:31:30;5.00;99.90
18408;DHT22;9330;52.210;21.174;2023-01-15T09:33:57;5.10;99.90
18408;DHT22;9330;52.210;21.174;2023-01-15T09:36:27;5.10;99.90
18408;DHT22;9330;52.210;21.174;2023-01-15T09:38:54;5.20;99.90
18408;DHT22;9330;52.210;21.174;2023-01-15T09:41:22;5.00;99.90
18408;DHT22;9330;52.210;21.174;2023-01-15T09:44:28;5.10;99.90
18408;DHT22;9330;52.210;21.174;2023-01-15T09:47:05;5.10;99.90
18408;DHT22;9330;52.210;21.174;2023-01-15T09:49:59;5.10;99.90
18408;DHT22;9330;52.210;21.174;2023-01-15T09:52:40;5.00;99.90
18408;DHT22;9330;52.210;21.174;2023-01-15T09:55:13;5.00;99.90
18408;DHT22;9330;52.210;21.174;2023-01-15T09:57:41;5.00;99.90
18408;DHT22;9330;52.210;21.174;2023-01-15T10:00:16;5.00;99.90
18408;DHT22;9330;52.210;21.174;2023-01-15T10:02:48;5.00;99.90
18408;DHT22;9330;52.210;21.174;2023-01-15T10:05:18;4.90;99.90
18408;DHT22;9330;52.210;21.174;2023-01-15T10:07:53;5.00;99.90
18408;DHT22;9330;52.210;21.174;2023-01-15T10:10:24;4.90;99.90
18408;DHT22;9330;52.210;21.174;2023-01-15T10:12:57;4.90;99.90
18408;DHT22;9330;52.210;21.174;2023-01-15T10:15:31;5.00;99.90
18408;DHT22;9330;52.210;21.174;2023-01-15T10:18:04;5.00;99.90
18408;DHT22;9330;52.210;21.174;2023-01-15T10:20:48;4.90;99.90
18408;DHT22;9330;52.210;21.174;2023-01-15T10:23:36;4.90;99.90
18408;DHT22;9330;52.210;21.174;2023-01-15T10:26:14;5.00;99.90
18408;DHT22;9330;52.210;21.174;2023-01-15T10:28:56;5.00;99.90
18408;DHT22;9330;52.210;21.174;2023-01-15T10:31:34;5.00;99.90
18408;DHT22;9330;52.210;21.174;2023-01-15T10:34:26;5.00;99.90
18408;DHT22;9330;52.210;21.174;2023-01-15T10:36:58;4.90;99.90
18408;DHT22;9330;52.210;21.174;2023-01-15T10:39:31;4.90;99.90
18408;DHT22;9330;52.210;21.174;2023-01-15T10:42:09;5.00;99.90
18408;DHT22;9330;52.210;21.174;2023-01-15T10:44:45;5.00;99.90
18408;DHT22;9330;52.210;21.174;2023-01-15T10:47:17;5.00;99.90
18408;DHT22;9330;52.210;21.174;2023-01-15T10:49:48;5.00;99.90
18408;DHT22;9330;52.210;21.174;2023-01-15T10:52:22;5.10;99.90
18408;DHT22;9330;52.210;21.174;2023-01-15T10:55:26;5.00;99.90
18408;DHT22;9330;52.210;21.174;2023-01-15T10:58:01;5.00;99.90
18408;DHT22;9330;52.210;21.174;2023-01-15T11:00:30;5.00;99.90
18408;DHT22;9330;52.210;21.174;2023-01-15T11:03:00;5.10;99.90
18408;DHT22;9330;52.210;21.174;2023-01-15T11:05:35;5.00;99.90
18408;DHT22;9330;52.210;21.174;2023-01-15T11:08:05;5.00;99.90
18408;DHT22;9330;52.210;21.174;2023-01-15T11:10:33;5.10;99.90
18408;DHT22;9330;52.210;21.174;2023-01-15T11:13:10;5.00;99.90
18408;DHT22;9330;52.210;21.174;2023-01-15T11:15:56;5.00;99.90
18408;DHT22;9330;52.210;21.174;2023-01-15T11:18:43;5.00;99.90
18408;DHT22;9330;52.210;21.174;2023-01-15T11:21:30;4.90;99.90
18408;DHT22;9330;52.210;21.174;2023-01-15T11:24:01;4.90;99.90
18408;DHT22;9330;52.210;21.174;2023-01-15T11:26:32;5.00;99.90
18408;DHT22;9330;52.210;21.174;2023-01-15T11:29:11;5.00;99.90
18408;DHT22;9330;52.210;21.174;2023-01-15T11:31:40;5.10;99.90
18408;DHT22;9330;52.210;21.174;2023-01-15T11:34:18;5.00;99.90
18408;DHT22;9330;52.210;21.174;2023-01-15T11:36:47;5.00;99.90
18408;DHT22;9330;52.210;21.174;2023-01-15T11:39:24;5.00;99.90
18408;DHT22;9330;52.210;21.174;2023-01-15T11:42:00;5.00;99.90
18408;DHT22;9330;52.210;21.174;2023-01-15T11:44:52;4.90;99.90
18408;DHT22;9330;52.210;21.174;2023-01-15T11:47:37;5.00;99.90
18408;DHT22;9330;52.210;21.174;2023-01-15T11:50:22;5.00;99.90
18408;DHT22;9330;52.210;21.174;2023-01-15T11:53:17;5.00;99.90
18408;DHT22;9330;52.210;21.174;2023-01-15T11:55:53;5.00;99.90
18408;DHT22;9330;52.210;21.174;2023-01-15T11:58:25;5.00;99.90
18408;DHT22;9330;52.210;21.174;2023-01-15T12:00:53;5.00;99.90
18408;DHT22;9330;52.210;21.174;2023-01-15T12:03:24;5.10;99.90
18408;DHT22;9330;52.210;21.174;2023-01-15T12:05:56;4.90;99.90
18408;DHT22;9330;52.210;21.174;2023-01-15T12:08:42;5.00;99.90
18408;DHT22;9330;52.210;21.174;2023-01-15T12:11:18;5.10;99.90
18408;DHT22;9330;52.210;21.174;2023-01-15T12:13:54;5.10;99.90
18408;DHT22;9330;52.210;21.174;2023-01-15T12:16:32;5.00;99.90
18408;DHT22;9330;52.210;21.174;2023-01-15T12:19:07;5.10;99.90
18408;DHT22;9330;52.210;21.174;2023-01-15T12:21:46;5.00;99.90
18408;DHT22;9330;52.210;21.174;2023-01-15T12:24:46;5.10;99.90
18408;DHT22;9330;52.210;21.174;2023-01-15T12:27:42;5.10;99.90
18408;DHT22;9330;52.210;21.174;2023-01-15T12:30:20;5.10;99.90
18408;DHT22;9330;52.210;21.174;2023-01-15T12:32:54;5.00;99.90
18408;DHT22;9330;52.210;21.174;2023-01-15T12:35:28;5.10;99.90
18408;DHT22;9330;52.210;21.174;2023-01-15T12:38:00;5.10;99.90
18408;DHT22;9330;52.210;21.174;2023-01-15T12:40:37;5.10;99.90
18408;DHT22;9330;52.210;21.174;2023-01-15T12:43:14;5.10;99.90
18408;DHT22;9330;52.210;21.174;2023-01-15T12:46:02;5.00;99.90
18408;DHT22;9330;52.210;21.174;2023-01-15T12:48:36;5.10;99.90
18408;DHT22;9330;52.210;21.174;2023-01-15T12:51:11;5.10;99.90
18408;DHT22;9330;52.210;21.174;2023-01-15T12:53:41;5.10;99.90
18408;DHT22;9330;52.210;21.174;2023-01-15T12:56:16;5.10;99.90
18408;DHT22;9330;52.210;21.174;2023-01-15T12:58:48;5.20;99.90
18408;DHT22;9330;52.210;21.174;2023-01-15T13:01:20;5.10;99.90
18408;DHT22;9330;52.210;21.174;2023-01-15T13:03:57;5.20;99.90
18408;DHT22;9330;52.210;21.174;2023-01-15T13:06:26;5.30;99.90
18408;DHT22;9330;52.210;21.174;2023-01-15T13:08:58;5.20;99.90
18408;DHT22;9330;52.210;21.174;2023-01-15T13:11:27;5.20;99.90
18408;DHT22;9330;52.210;21.174;2023-01-15T13:13:54;5.20;99.90
18408;DHT22;9330;52.210;21.174;2023-01-15T13:16:32;5.20;99.90
18408;DHT22;9330;52.210;21.174;2023-01-15T13:19:21;5.30;99.90
18408;DHT22;9330;52.210;21.174;2023-01-15T13:21:54;5.20;99.90
18408;DHT22;9330;52.210;21.174;2023-01-15T13:24:33;5.30;99.90
18408;DHT22;9330;52.210;21.174;2023-01-15T13:27:11;5.20;99.90
18408;DHT22;9330;52.210;21.174;2023-01-15T13:29:49;5.20;99.90
18408;DHT22;9330;52.210;21.174;2023-01-15T13:32:21;5.30;99.90
18408;DHT22;9330;52.210;21.174;2023-01-15T13:34:54;5.20;99.90
18408;DHT22;9330;52.210;21.174;2023-01-15T13:37:25;5.20;99.90
18408;DHT22;9330;52.210;21.174;2023-01-15T13:39:56;5.50;99.90
18408;DHT22;9330;52.210;21.174;2023-01-15T13:42:27;5.30;99.90
18408;DHT22;9330;52.210;21.174;2023-01-15T13:44:59;5.30;99.90
18408;DHT22;9330;52.210;21.174;2023-01-15T13:47:30;5.40;99.90
18408;DHT22;9330;52.210;21.174;2023-01-15T13:50:00;5.30;99.90
18408;DHT22;9330;52.210;21.174;2023-01-15T13:52:30;5.30;99.90
18408;DHT22;9330;52.210;21.174;2023-01-15T13:55:00;5.40;99.90
18408;DHT22;9330;52.210;21.174;2023-01-15T13:57:36;5.40;99.90
18408;DHT22;9330;52.210;21.174;2023-01-15T14:00:04;5.40;99.90
18408;DHT22;9330;52.210;21.174;2023-01-15T14:02:32;5.40;99.90
18408;DHT22;9330;52.210;21.174;2023-01-15T14:05:11;5.30;99.90
18408;DHT22;9330;52.210;21.174;2023-01-15T14:07:38;5.40;99.90
18408;DHT22;9330;52.210;21.174;2023-01-15T14:10:17;5.40;99.90
18408;DHT22;9330;52.210;21.174;2023-01-15T14:12:57;5.40;99.90
18408;DHT22;9330;52.210;21.174;2023-01-15T14:15:38;5.60;99.90
18408;DHT22;9330;52.210;21.174;2023-01-15T14:18:21;5.40;99.90
18408;DHT22;9330;52.210;21.174;2023-01-15T14:21:05;5.40;99.90
18408;DHT22;9330;52.210;21.174;2023-01-15T14:23:45;5.40;99.90
18408;DHT22;9330;52.210;21.174;2023-01-15T14:26:23;5.50;99.90
18408;DHT22;9330;52.210;21.174;2023-01-15T14:29:01;5.50;99.90
18408;DHT22;9330;52.210;21.174;2023-01-15T14:31:46;5.40;99.90
18408;DHT22;9330;52.210;21.174;2023-01-15T14:34:21;5.50;99.90
18408;DHT22;9330;52.210;21.174;2023-01-15T14:36:59;5.60;99.90
18408;DHT22;9330;52.210;21.174;2023-01-15T14:39:35;5.40;99.90
18408;DHT22;9330;52.210;21.174;2023-01-15T14:42:09;5.40;99.90
18408;DHT22;9330;52.210;21.174;2023-01-15T14:45:02;5.40;99.90
18408;DHT22;9330;52.210;21.174;2023-01-15T14:47:33;5.40;99.90
18408;DHT22;9330;52.210;21.174;2023-01-15T14:53:02;5.50;99.90
18408;DHT22;9330;52.210;21.174;2023-01-15T14:55:30;5.40;99.90
18408;DHT22;9330;52.210;21.174;2023-01-15T14:58:00;5.50;99.90
18408;DHT22;9330;52.210;21.174;2023-01-15T15:00:34;5.40;99.90
18408;DHT22;9330;52.210;21.174;2023-01-15T15:03:04;5.50;99.90
18408;DHT22;9330;52.210;21.174;2023-01-15T15:05:40;5.50;99.90
18408;DHT22;9330;52.210;21.174;2023-01-15T15:08:10;5.40;99.90
18408;DHT22;9330;52.210;21.174;2023-01-15T15:10:40;5.50;99.90
18408;DHT22;9330;52.210;21.174;2023-01-15T15:13:13;5.50;99.90
18408;DHT22;9330;52.210;21.174;2023-01-15T15:15:49;5.40;99.90
18408;DHT22;9330;52.210;21.174;2023-01-15T15:18:25;5.50;99.90
18408;DHT22;9330;52.210;21.174;2023-01-15T15:21:01;5.50;99.90
18408;DHT22;9330;52.210;21.174;2023-01-15T15:23:36;5.50;99.90
18408;DHT22;9330;52.210;21.174;2023-01-15T15:26:16;5.50;99.90
18408;DHT22;9330;52.210;21.174;2023-01-15T15:28:54;5.60;99.90
18408;DHT22;9330;52.210;21.174;2023-01-15T15:31:23;5.60;99.90
18408;DHT22;9330;52.210;21.174;2023-01-15T15:33:52;5.60;99.90
18408;DHT22;9330;52.210;21.174;2023-01-15T15:36:19;5.50;99.90
18408;DHT22;9330;52.210;21.174;2023-01-15T15:38:53;5.60;99.90
18408;DHT22;9330;52.210;21.174;2023-01-15T15:41:21;5.50;99.90
18408;DHT22;9330;52.210;21.174;2023-01-15T15:44:04;5.50;99.90
18408;DHT22;9330;52.210;21.174;2023-01-15T15:46:56;5.50;99.90
18408;DHT22;9330;52.210;21.174;2023-01-15T15:49:42;5.50;99.90
18408;DHT22;9330;52.210;21.174;2023-01-15T15:52:18;5.40;99.90
18408;DHT22;9330;52.210;21.174;2023-01-15T15:54:57;5.30;99.90
18408;DHT22;9330;52.210;21.174;2023-01-15T15:57:35;5.50;99.90
18408;DHT22;9330;52.210;21.174;2023-01-15T16:00:03;5.40;99.90
18408;DHT22;9330;52.210;21.174;2023-01-15T16:02:33;5.50;99.90
18408;DHT22;9330;52.210;21.174;2023-01-15T16:05:19;5.50;99.90
18408;DHT22;9330;52.210;21.174;2023-01-15T16:07:47;5.60;99.90
18408;DHT22;9330;52.210;21.174;2023-01-15T16:10:17;5.60;99.90
18408;DHT22;9330;52.210;21.174;2023-01-15T16:12:46;5.50;99.90
18408;DHT22;9330;52.210;21.174;2023-01-15T16:15:15;5.60;99.90
18408;DHT22;9330;52.210;21.174;2023-01-15T16:18:03;5.50;99.90
18408;DHT22;9330;52.210;21.174;2023-01-15T16:20:49;5.50;99.90